• Join FlightAware (Why Join?)
  • Login
  • US Flag 
01:13AM EST


 

Airport Tracker/Info


-or-


 

Live Flight TrackerFlight Track Log ✈ SWA1969 ✈ 01-May-2013 ✈ KMDW - KPHX

Flight Track Log - Related Links

Times and Time Zones

All times are in EDT time to prevent confusion due to time zone crossing. See the SWA1969 flight status page for this flight to view local times or setup timezone preferences in your user account.

Time Position Orientation Groundspeed Altitude Reporting Facility
EDT Latitude Longitude Course Direction KTS MPH feet Rate Location/Type
01:43PM 41.7500 -87.7833 251° West 169 194 2,400  Level Chicago TRACON
01:44PM 41.7333 -87.8500 251° West 227 261 3,100 660 Climbing Chicago TRACON
01:45PM 41.7439 -87.9619 277° West 271 312 4,000 660 Climbing Chicago Center
01:46PM 41.7564 -88.0583 280° West 268 308 4,700 960 Climbing Chicago Center
01:47PM 41.7694 -88.1586 280° West 272 313 6,000 600 Climbing Chicago Center
01:48PM 41.8144 -88.2642 300° West 289 333 6,000 1,020 Level Chicago Center
01:49PM 41.8653 -88.3422 311° West 281 323 8,200 2,400 Climbing Chicago Center
01:50PM 41.9053 -88.4367 300° West 304 350 11,000 1,860 Climbing Chicago Center
01:51PM 41.9117 -88.5442 275° West 295 339 12,100 1,200 Climbing Chicago Center
01:52PM 41.8867 -88.6589 254° West 326 375 13,600 2,220 Climbing Chicago Center
01:53PM 41.8453 -88.8067 249° West 354 407 16,800 2,640 Climbing Chicago Center
01:54PM 41.8094 -88.9367 250° West 371 427 19,100 2,100 Climbing Chicago Center
01:55PM 41.7719 -89.0714 250° West 386 444 21,200 1,860 Climbing Chicago Center
01:56PM 41.7331 -89.2100 249° West 399 459 23,000 1,740 Climbing Chicago Center
01:57PM 41.6919 -89.3542 249° West 413 475 24,800 1,800 Climbing Chicago Center
01:58PM 41.6419 -89.5344 250° West 429 494 26,700 1,500 Climbing Chicago Center
01:59PM 41.5997 -89.6817 249° West 438 504 28,000 1,200 Climbing Chicago Center
02:01PM 41.5547 -89.8397 249° West 450 518 29,300 1,440 Climbing Chicago Center
02:02PM 41.5100 -89.9969 249° West 456 525 31,000 1,560 Climbing Chicago Center
02:03PM 41.4642 -90.1508 248° West 453 521 32,600 1,500 Climbing Chicago Center
02:04PM 41.4106 -90.3367 249° West 451 519 34,100 1,260 Climbing Chicago Center
02:05PM 41.3656 -90.4906 249° West 449 517 35,300 900 Climbing Chicago Center
02:06PM 41.3206 -90.6417 248° West 446 513 36,000 300 Climbing Chicago Center
02:07PM 41.2758 -90.7933 249° West 443 510 36,000  Level Chicago Center
02:08PM 41.2344 -90.9464 250° West 443 510 36,000  Level Chicago Center
02:09PM 41.1969 -91.1033 252° West 446 513 36,000  Level Chicago Center
02:10PM 41.1522 -91.2906 252° West 446 513 36,000  Level Chicago Center
02:11PM 41.1142 -91.4444 252° West 444 511 36,000  Level Chicago Center
02:12PM 41.0753 -91.5975 251° West 440 506 36,000  Level Chicago Center
02:13PM 41.0394 -91.7467 252° West 438 504 36,000  Level Chicago Center
02:14PM 41.0003 -91.8975 251° West 438 504 36,000  Level Chicago Center
02:15PM 40.9556 -92.0789 252° West 436 502 36,000  Level Chicago Center
02:16PM 40.9161 -92.2308 251° West 440 506 36,000  Level Chicago Center
02:17PM 40.8781 -92.3825 252° West 440 506 36,000  Level Chicago Center
02:18PM 40.8389 -92.5322 251° West 438 504 36,000  Level Chicago Center
02:19PM 40.8006 -92.6847 252° West 443 510 36,000  Level Chicago Center
02:20PM 40.7525 -92.8661 251° West 444 511 36,000  Level Chicago Center
02:21PM 40.7136 -93.0169 251° West 443 510 36,000  Level Chicago Center
02:22PM 40.6650 -93.1950 250° West 437 503 36,000  Level Minneapolis Center
02:23PM 40.6247 -93.3450 251° West 436 502 36,000  Level Minneapolis Center
02:24PM 40.5783 -93.5247 251° West 440 506 36,000  Level Kansas City Center
02:25PM 40.5436 -93.6447 249° West 441 507 36,000  Level Minneapolis Center
02:26PM 40.4961 -93.8214 251° West 436 502 36,000  Level Minneapolis Center
02:27PM 40.4556 -93.9692 250° West 433 498 36,000  Level Minneapolis Center
02:28PM 40.4158 -94.1167 251° West 433 498 36,000  Level Minneapolis Center
02:30PM 40.3744 -94.2650 250° West 435 501 36,000  Level Minneapolis Center
02:31PM 40.3331 -94.4117 250° West 434 499 36,000  Level Minneapolis Center
02:32PM 40.2831 -94.5914 250° West 434 499 36,000  Level Minneapolis Center
02:33PM 40.2419 -94.7381 250° West 431 496 36,000  Level Minneapolis Center
02:34PM 40.2022 -94.8844 250° West 428 493 36,000  Level Minneapolis Center
02:35PM 40.1600 -95.0300 249° West 427 491 36,000  Level Minneapolis Center
02:36PM 40.1169 -95.1858 250° West 428 493 36,000  Level Kansas City Center
02:37PM 40.0703 -95.3472 249° West 427 491 36,000  Level Kansas City Center
02:38PM 40.0303 -95.4831 249° West 423 487 36,000  Level Kansas City Center
02:39PM 39.9836 -95.6431 249° West 425 489 36,000  Level Kansas City Center
02:40PM 39.9442 -95.7800 249° West 424 488 36,000  Level Kansas City Center
02:41PM 39.8964 -95.9403 249° West 426 490 36,000  Level Kansas City Center
02:42PM 39.8561 -96.0761 249° West 423 487 36,000  Level Kansas City Center
02:43PM 39.8083 -96.2394 249° West 422 486 36,000  Level Kansas City Center
02:44PM 39.7672 -96.3733 248° West 422 486 36,000  Level Kansas City Center
02:45PM 39.7219 -96.5233 249° West 421 484 36,000  Level Kansas City Center
02:46PM 39.6800 -96.6647 249° West 420 483 36,000  Level Kansas City Center
02:47PM 39.6375 -96.8056 249° West 418 481 36,000  Level Kansas City Center
02:48PM 39.5869 -96.9617 247° West 417 480 36,000  Level Kansas City Center
02:49PM 39.5458 -97.1014 249° West 416 479 36,000  Level Kansas City Center
02:50PM 39.5039 -97.2400 249° West 415 478 36,000  Level Kansas City Center
02:51PM 39.4544 -97.3942 247° West 414 476 36,000  Level Kansas City Center
02:52PM 39.4144 -97.5289 249° West 414 476 36,000  Level Kansas City Center
02:53PM 39.3714 -97.6675 248° West 414 476 36,000  Level Kansas City Center
02:54PM 39.3283 -97.8047 248° West 412 474 36,000  Level Kansas City Center
02:55PM 39.2772 -97.9633 247° West 410 472 36,000  Level Kansas City Center
02:56PM 39.2347 -98.0933 247° West 412 474 36,000  Level Kansas City Center
02:58PM 39.1939 -98.2236 248° West 409 471 36,000  Level Kansas City Center
02:59PM 39.1281 -98.4300 248° West 407 468 36,000  Level Denver Center
03:00PM 39.0997 -98.5200 248° West 407 468 36,000  Level Kansas City Center
03:01PM 39.0561 -98.6536 247° West 407 468 36,000  Level Kansas City Center
03:02PM 39.0122 -98.7861 247° West 404 465 36,000  Level Kansas City Center
03:03PM 38.9689 -98.9178 247° West 403 464 36,000  Level Kansas City Center
03:03PM 38.9450 -98.9931 248° West 405 466 36,000  Level Denver Center
03:04PM 38.9000 -99.1281 247° West 398 458 36,000  Level Denver Center
03:05PM 38.8567 -99.2544 246° West 402 463 36,000  Level Denver Center
03:06PM 38.8286 -99.3381 247° West 402 463 36,000  Level Kansas City Center
03:06PM 38.8097 -99.3989 248° West 394 453 36,000  Level Denver Center
03:07PM 38.7686 -99.5233 247° West 394 453 36,000  Level Denver Center
03:08PM 38.7197 -99.6664 246° West 394 453 36,000  Level Denver Center
03:09PM 38.6781 -99.7875 246° West 391 450 36,000  Level Denver Center
03:10PM 38.6375 -99.9100 247° West 391 450 36,000  Level Denver Center
03:11PM 38.5889 -100.0497 246° West 386 444 36,000  Level Denver Center
03:12PM 38.5472 -100.1708 246° West 389 448 36,000  Level Denver Center
03:13PM 38.4989 -100.3119 246° West 389 448 36,000  Level Denver Center
03:14PM 38.4572 -100.4331 246° West 390 449 36,000  Level Denver Center
03:16PM 38.4078 -100.5742 246° West 392 451 36,000  Level Denver Center
03:17PM 38.3661 -100.6950 246° West 390 449 36,000  Level Denver Center
03:18PM 38.3164 -100.8344 246° West 389 448 36,000  Level Denver Center
03:19PM 38.2747 -100.9533 246° West 387 445 36,000  Level Denver Center
03:20PM 38.2261 -101.0925 246° West 388 447 36,000  Level Denver Center
03:21PM 38.1844 -101.2103 246° West 385 443 36,000  Level Denver Center
03:22PM 38.1358 -101.3478 246° West 385 443 36,000  Level Denver Center
03:23PM 38.0936 -101.4631 245° Southwest 380 437 36,000  Level Denver Center
03:24PM 38.0572 -101.5808 249° West 378 435 36,000  Level Denver Center
03:25PM 38.0150 -101.7189 249° West 377 434 36,000  Level Denver Center
03:26PM 37.9775 -101.8364 248° West 377 434 36,000  Level Denver Center
03:27PM 37.9331 -101.9753 248° West 381 438 36,000  Level Denver Center
03:28PM 37.8961 -102.0936 248° West 381 438 36,000  Level Denver Center
03:29PM 37.8444 -102.2528 248° West 382 440 36,000  Level Denver Center
03:30PM 37.8072 -102.3725 249° West 382 440 36,000  Level Denver Center
03:31PM 37.7628 -102.5111 248° West 381 438 36,000  Level Denver Center
03:32PM 37.7242 -102.6294 248° West 380 437 36,000  Level Denver Center
03:33PM 37.6803 -102.7667 248° West 379 436 36,000  Level Denver Center
03:34PM 37.6403 -102.8844 247° West 381 438 36,000  Level Denver Center
03:35PM 37.5967 -103.0217 248° West 379 436 36,000  Level Denver Center
03:36PM 37.5572 -103.1383 247° West 378 435 36,000  Level Denver Center
03:37PM 37.5144 -103.2706 248° West 377 434 36,000  Level Denver Center
03:38PM 37.4731 -103.3917 247° West 379 436 36,000  Level Denver Center
03:39PM 37.4358 -103.5075 248° West 376 433 36,000  Level Denver Center
03:40PM 37.3892 -103.6447 247° West 380 437 36,000  Level Denver Center
03:41PM 37.3492 -103.7636 247° West 385 443 36,000  Level Denver Center
03:42PM 37.3064 -103.8903 247° West 382 440 36,000  Level Denver Center
03:44PM 37.2636 -104.0158 247° West 387 445 36,000  Level Denver Center
03:45PM 37.2219 -104.1411 247° West 385 443 36,000  Level Denver Center
03:46PM 37.1783 -104.2653 246° West 384 442 36,000  Level Denver Center
03:47PM 37.1294 -104.4092 247° West 381 438 36,000  Level Denver Center
03:48PM 37.0853 -104.5328 246° West 383 441 36,000  Level Denver Center
03:49PM 37.0433 -104.6567 247° West 382 440 36,000  Level Denver Center
03:50PM 37.0006 -104.7817 247° West 385 443 36,000  Level Denver Center
03:51PM 36.9572 -104.9083 247° West 382 440 36,000  Level Denver Center
03:52PM 36.9147 -105.0261 246° West 374 430 36,000  Level Denver Center
03:53PM 36.8736 -105.1447 247° West 372 428 36,000  Level Denver Center
03:53PM 36.8458 -105.2206 245° Southwest 373 429 36,000  Level Albuquerque Center
03:54PM 36.8042 -105.3383 246° West 370 426 36,000  Level Albuquerque Center
03:55PM 36.7886 -105.3853 248° West 369 425 36,000  Level Denver Center
03:56PM 36.7417 -105.5158 246° West 369 425 36,000  Level Denver Center
03:57PM 36.6978 -105.6350 245° Southwest 370 426 36,000  Level Denver Center
03:58PM 36.6469 -105.7761 246° West 372 428 36,000  Level Denver Center
03:59PM 36.6047 -105.8953 246° West 376 433 36,000  Level Denver Center
04:00PM 36.5856 -105.9508 247° West 381 438 36,000  Level Albuquerque Center
04:01PM 36.5375 -106.0847 246° West 380 437 36,000  Level Albuquerque Center
04:02PM 36.4944 -106.1981 245° Southwest 379 436 36,000  Level Albuquerque Center
04:03PM 36.4469 -106.3339 247° West 384 442 36,000  Level Albuquerque Center
04:04PM 36.4044 -106.4489 245° Southwest 383 441 36,000  Level Albuquerque Center
04:05PM 36.3622 -106.5619 245° Southwest 380 437 36,000  Level Albuquerque Center
04:06PM 36.3125 -106.6947 245° Southwest 380 437 36,000  Level Albuquerque Center
04:07PM 36.2706 -106.8094 246° West 381 438 36,000  Level Albuquerque Center
04:08PM 36.2217 -106.9433 246° West 381 438 36,000  Level Albuquerque Center
04:09PM 36.1744 -107.0644 244° Southwest 381 438 36,000  Level Albuquerque Center
04:10PM 36.1275 -107.1906 245° Southwest 384 442 36,000  Level Albuquerque Center
04:11PM 36.0711 -107.2969 237° Southwest 386 444 36,000  Level Albuquerque Center
04:12PM 36.0069 -107.4239 238° Southwest 389 448 36,000  Level Albuquerque Center
04:13PM 35.9503 -107.5328 237° Southwest 391 450 36,000  Level Albuquerque Center
04:14PM 35.8939 -107.6428 238° Southwest 394 453 36,000  Level Albuquerque Center
04:15PM 35.8283 -107.7681 237° Southwest 391 450 36,000  Level Albuquerque Center
04:16PM 35.7733 -107.8761 238° Southwest 388 447 36,000  Level Albuquerque Center
04:17PM 35.7072 -108.0011 237° Southwest 388 447 36,000  Level Albuquerque Center
04:18PM 35.6514 -108.1086 237° Southwest 389 448 36,000  Level Albuquerque Center
04:19PM 35.5856 -108.2344 237° Southwest 390 449 36,000  Level Albuquerque Center
04:20PM 35.5269 -108.3425 236° Southwest 393 452 36,000  Level Albuquerque Center
04:21PM 35.4700 -108.4508 237° Southwest 393 452 36,000  Level Albuquerque Center
04:22PM 35.4036 -108.5764 237° Southwest 392 451 36,000  Level Albuquerque Center
04:23PM 35.3467 -108.6844 237° Southwest 392 451 36,000  Level Albuquerque Center
04:24PM 35.2797 -108.8097 237° Southwest 391 450 36,000  Level Albuquerque Center
04:25PM 35.2217 -108.9158 236° Southwest 391 450 36,000  Level Albuquerque Center
04:26PM 35.1547 -109.0417 237° Southwest 393 452 36,000  Level Albuquerque Center
04:27PM 35.0958 -109.1494 236° Southwest 395 455 36,000 -300 Level Albuquerque Center
04:28PM 35.0381 -109.2592 237° Southwest 399 459 35,500 -780 Descending Albuquerque Center
04:30PM 34.9664 -109.3889 236° Southwest 407 468 34,500 -960 Descending Albuquerque Center
04:31PM 34.9044 -109.4981 235° Southwest 409 471 33,600 -1,020 Descending Albuquerque Center
04:32PM 34.8311 -109.6300 236° Southwest 415 478 32,500 -780 Descending Albuquerque Center
04:33PM 34.7703 -109.7419 237° Southwest 417 480 32,000 -300 Descending Albuquerque Center
04:34PM 34.6992 -109.8786 238° Southwest 425 489 32,000  Level Albuquerque Center
04:35PM 34.6536 -110.0028 246° West 420 483 32,000  Level Albuquerque Center
04:36PM 34.6017 -110.1536 247° West 432 497 32,000  Level Albuquerque Center
04:37PM 34.5539 -110.2789 245° Southwest 430 495 32,000 -240 Level Albuquerque Center
04:38PM 34.5008 -110.4136 244° Southwest 426 490 31,600 -1,140 Descending Albuquerque Center
04:39PM 34.4592 -110.5392 248° West 409 471 29,700 -1,980 Descending Albuquerque Center
04:40PM 34.4131 -110.6547 244° Southwest 389 448 27,600 -2,040 Descending Albuquerque Center
04:41PM 34.3650 -110.7647 242° Southwest 378 435 25,600 -1,980 Descending Albuquerque Center
04:42PM 34.3003 -110.8650 232° Southwest 382 440 23,600 -2,220 Descending Albuquerque Center
04:43PM 34.2131 -110.9772 227° Southwest 381 438 21,100 -2,160 Descending Albuquerque Center
04:44PM 34.1447 -111.0664 227° Southwest 370 426 19,200 -1,860 Descending Albuquerque Center
04:45PM 34.0786 -111.1531 227° Southwest 355 409 17,300 -1,860 Descending Albuquerque Center
04:46PM 34.0125 -111.2392 227° Southwest 351 404 15,400 -1,800 Descending Albuquerque Center
04:47PM 33.9467 -111.3200 226° Southwest 339 390 13,600 -1,560 Descending Albuquerque Center
04:48PM 33.8844 -111.4003 227° Southwest 327 376 12,300 -960 Descending Albuquerque Center
04:49PM 33.8186 -111.4600 217° Southwest 297 342 11,700 -780 Descending Albuquerque Center
04:50PM 33.7486 -111.5186 215° Southwest 254 292 10,700 -1,020 Descending Albuquerque Center
04:51PM 33.6919 -111.5686 216° Southwest 252 290 9,700 -1,080 Descending Albuquerque Center
04:52PM 33.6347 -111.6161 215° Southwest 249 287 8,500 -1,140 Descending Albuquerque Center
04:53PM 33.5706 -111.6369 195° South 243 280 7,400 -900 Descending Albuquerque Center
04:54PM 33.5061 -111.6519 191° South 236 272 6,700 -900 Descending Albuquerque Center
04:55PM 33.4500 -111.6675 193° South 211 243 5,600 -780 Descending Albuquerque Center
04:56PM 33.4403 -111.7381 261° West 207 238 5,100 -780 Descending Albuquerque Center
04:57PM 33.4406 -111.8036 270° West 205 236 4,100 -1,080 Descending Albuquerque Center
04:58PM 33.4406 -111.8817 270° West 197 227 2,900 -1,020 Descending Albuquerque Center
04:59PM 33.4414 -111.9383 271° West 175 201 2,100 -840 Descending Albuquerque Center
05:00PM 33.4397 -111.9908 268° West 155 178 1,200 -900 Descending Albuquerque Center
05:02PM 33.4343 -112.0116 287° West  Level Estimated
05:09PM 33.4343 -112.0116 90° East  Level Estimated